sensor_id;sensor_type;location;lat;lon;timestamp;P1;durP1;ratioP1;P2;durP2;ratioP2
12214;SDS011;6170;42.206;24.142;2022-10-16T00:01:04;8.50;;;5.65;;
12214;SDS011;6170;42.206;24.142;2022-10-16T00:03:32;8.27;;;5.70;;
12214;SDS011;6170;42.206;24.142;2022-10-16T00:06:00;8.82;;;5.70;;
12214;SDS011;6170;42.206;24.142;2022-10-16T00:08:28;7.88;;;5.50;;
12214;SDS011;6170;42.206;24.142;2022-10-16T00:10:59;13.57;;;6.28;;
12214;SDS011;6170;42.206;24.142;2022-10-16T00:13:29;8.75;;;5.88;;
12214;SDS011;6170;42.206;24.142;2022-10-16T00:15:56;9.30;;;6.18;;
12214;SDS011;6170;42.206;24.142;2022-10-16T00:18:25;13.02;;;6.35;;
12214;SDS011;6170;42.206;24.142;2022-10-16T00:20:52;9.27;;;6.55;;
12214;SDS011;6170;42.206;24.142;2022-10-16T00:23:20;9.77;;;5.47;;
12214;SDS011;6170;42.206;24.142;2022-10-16T00:25:54;10.65;;;6.45;;
12214;SDS011;6170;42.206;24.142;2022-10-16T00:28:22;9.55;;;6.32;;
12214;SDS011;6170;42.206;24.142;2022-10-16T00:30:51;9.20;;;6.22;;
12214;SDS011;6170;42.206;24.142;2022-10-16T00:33:18;9.73;;;6.22;;
12214;SDS011;6170;42.206;24.142;2022-10-16T00:35:46;12.43;;;6.00;;
12214;SDS011;6170;42.206;24.142;2022-10-16T00:38:13;11.77;;;6.03;;
12214;SDS011;6170;42.206;24.142;2022-10-16T00:40:40;9.90;;;6.28;;
12214;SDS011;6170;42.206;24.142;2022-10-16T00:43:11;9.18;;;6.28;;
12214;SDS011;6170;42.206;24.142;2022-10-16T00:45:40;12.48;;;6.30;;
12214;SDS011;6170;42.206;24.142;2022-10-16T00:48:11;10.63;;;6.50;;
12214;SDS011;6170;42.206;24.142;2022-10-16T00:50:40;10.98;;;6.03;;
12214;SDS011;6170;42.206;24.142;2022-10-16T00:53:09;17.17;;;6.00;;
12214;SDS011;6170;42.206;24.142;2022-10-16T00:55:37;8.80;;;6.38;;
12214;SDS011;6170;42.206;24.142;2022-10-16T00:58:04;8.07;;;5.80;;
12214;SDS011;6170;42.206;24.142;2022-10-16T01:00:32;9.60;;;6.30;;
12214;SDS011;6170;42.206;24.142;2022-10-16T01:03:00;10.25;;;5.63;;
12214;SDS011;6170;42.206;24.142;2022-10-16T01:05:30;8.77;;;6.10;;
12214;SDS011;6170;42.206;24.142;2022-10-16T01:08:04;8.60;;;5.85;;
12214;SDS011;6170;42.206;24.142;2022-10-16T01:10:39;12.93;;;6.47;;
12214;SDS011;6170;42.206;24.142;2022-10-16T01:13:12;11.98;;;6.22;;
12214;SDS011;6170;42.206;24.142;2022-10-16T01:15:48;9.93;;;5.85;;
12214;SDS011;6170;42.206;24.142;2022-10-16T01:18:21;11.27;;;6.28;;
12214;SDS011;6170;42.206;24.142;2022-10-16T01:20:58;11.30;;;6.75;;
12214;SDS011;6170;42.206;24.142;2022-10-16T01:23:38;10.15;;;6.07;;
12214;SDS011;6170;42.206;24.142;2022-10-16T01:26:20;11.52;;;6.18;;
12214;SDS011;6170;42.206;24.142;2022-10-16T01:29:01;10.88;;;6.45;;
12214;SDS011;6170;42.206;24.142;2022-10-16T01:31:32;9.60;;;6.18;;
12214;SDS011;6170;42.206;24.142;2022-10-16T01:34:03;9.20;;;5.82;;
12214;SDS011;6170;42.206;24.142;2022-10-16T01:36:35;7.90;;;5.85;;
12214;SDS011;6170;42.206;24.142;2022-10-16T01:39:06;9.00;;;6.28;;
12214;SDS011;6170;42.206;24.142;2022-10-16T01:41:38;12.45;;;6.47;;
12214;SDS011;6170;42.206;24.142;2022-10-16T01:44:09;9.88;;;6.10;;
12214;SDS011;6170;42.206;24.142;2022-10-16T01:46:42;9.57;;;6.07;;
12214;SDS011;6170;42.206;24.142;2022-10-16T01:49:12;11.45;;;6.03;;
12214;SDS011;6170;42.206;24.142;2022-10-16T01:51:40;12.40;;;5.55;;
12214;SDS011;6170;42.206;24.142;2022-10-16T01:54:10;10.45;;;6.22;;
12214;SDS011;6170;42.206;24.142;2022-10-16T01:56:40;9.82;;;6.30;;
12214;SDS011;6170;42.206;24.142;2022-10-16T01:59:11;10.13;;;5.53;;
12214;SDS011;6170;42.206;24.142;2022-10-16T02:01:42;9.85;;;6.03;;
12214;SDS011;6170;42.206;24.142;2022-10-16T02:04:13;7.90;;;5.43;;
12214;SDS011;6170;42.206;24.142;2022-10-16T02:06:43;11.80;;;5.20;;
12214;SDS011;6170;42.206;24.142;2022-10-16T02:09:10;8.55;;;5.75;;
12214;SDS011;6170;42.206;24.142;2022-10-16T02:11:38;8.40;;;5.15;;
12214;SDS011;6170;42.206;24.142;2022-10-16T02:14:05;8.23;;;6.25;;
12214;SDS011;6170;42.206;24.142;2022-10-16T02:16:34;7.85;;;5.85;;
12214;SDS011;6170;42.206;24.142;2022-10-16T02:19:04;10.90;;;5.82;;
12214;SDS011;6170;42.206;24.142;2022-10-16T02:21:33;7.50;;;5.25;;
12214;SDS011;6170;42.206;24.142;2022-10-16T02:24:08;7.10;;;5.10;;
12214;SDS011;6170;42.206;24.142;2022-10-16T02:26:47;7.07;;;5.47;;
12214;SDS011;6170;42.206;24.142;2022-10-16T02:29:20;8.43;;;5.38;;
12214;SDS011;6170;42.206;24.142;2022-10-16T02:31:52;10.50;;;5.88;;
12214;SDS011;6170;42.206;24.142;2022-10-16T02:34:22;7.03;;;5.88;;
12214;SDS011;6170;42.206;24.142;2022-10-16T02:36:52;9.63;;;5.88;;
12214;SDS011;6170;42.206;24.142;2022-10-16T02:39:21;7.20;;;5.57;;
12214;SDS011;6170;42.206;24.142;2022-10-16T02:41:48;7.95;;;5.47;;
12214;SDS011;6170;42.206;24.142;2022-10-16T02:44:15;8.32;;;5.53;;
12214;SDS011;6170;42.206;24.142;2022-10-16T02:46:42;8.50;;;6.10;;
12214;SDS011;6170;42.206;24.142;2022-10-16T02:49:11;9.23;;;6.22;;
12214;SDS011;6170;42.206;24.142;2022-10-16T02:51:38;8.80;;;6.18;;
12214;SDS011;6170;42.206;24.142;2022-10-16T02:54:05;6.80;;;5.65;;
12214;SDS011;6170;42.206;24.142;2022-10-16T02:56:32;8.70;;;6.40;;
12214;SDS011;6170;42.206;24.142;2022-10-16T02:58:59;9.60;;;6.15;;
12214;SDS011;6170;42.206;24.142;2022-10-16T03:01:26;7.47;;;5.55;;
12214;SDS011;6170;42.206;24.142;2022-10-16T03:03:53;13.27;;;6.22;;
12214;SDS011;6170;42.206;24.142;2022-10-16T03:06:22;8.60;;;5.85;;
12214;SDS011;6170;42.206;24.142;2022-10-16T03:08:49;8.77;;;5.32;;
12214;SDS011;6170;42.206;24.142;2022-10-16T03:11:16;8.38;;;6.25;;
12214;SDS011;6170;42.206;24.142;2022-10-16T03:13:43;11.02;;;5.80;;
12214;SDS011;6170;42.206;24.142;2022-10-16T03:16:10;10.93;;;5.78;;
12214;SDS011;6170;42.206;24.142;2022-10-16T03:18:37;9.30;;;6.05;;
12214;SDS011;6170;42.206;24.142;2022-10-16T03:21:04;8.95;;;5.88;;
12214;SDS011;6170;42.206;24.142;2022-10-16T03:23:33;9.18;;;5.90;;
12214;SDS011;6170;42.206;24.142;2022-10-16T03:26:00;10.25;;;5.63;;
12214;SDS011;6170;42.206;24.142;2022-10-16T03:28:27;10.80;;;5.78;;
12214;SDS011;6170;42.206;24.142;2022-10-16T03:30:54;8.98;;;5.32;;
12214;SDS011;6170;42.206;24.142;2022-10-16T03:33:21;8.45;;;5.68;;
12214;SDS011;6170;42.206;24.142;2022-10-16T03:35:51;7.18;;;5.22;;
12214;SDS011;6170;42.206;24.142;2022-10-16T03:38:19;9.80;;;6.00;;
12214;SDS011;6170;42.206;24.142;2022-10-16T03:40:48;9.15;;;5.68;;
12214;SDS011;6170;42.206;24.142;2022-10-16T03:43:15;10.55;;;6.32;;
12214;SDS011;6170;42.206;24.142;2022-10-16T03:45:42;8.35;;;6.03;;
12214;SDS011;6170;42.206;24.142;2022-10-16T03:48:10;8.23;;;5.97;;
12214;SDS011;6170;42.206;24.142;2022-10-16T03:50:37;12.02;;;6.72;;
12214;SDS011;6170;42.206;24.142;2022-10-16T03:53:04;8.70;;;6.63;;
12214;SDS011;6170;42.206;24.142;2022-10-16T03:55:32;12.55;;;6.78;;
12214;SDS011;6170;42.206;24.142;2022-10-16T03:58:00;11.10;;;6.35;;
12214;SDS011;6170;42.206;24.142;2022-10-16T04:00:27;18.02;;;7.85;;
12214;SDS011;6170;42.206;24.142;2022-10-16T04:02:54;9.77;;;6.82;;
12214;SDS011;6170;42.206;24.142;2022-10-16T04:05:21;10.60;;;6.72;;
12214;SDS011;6170;42.206;24.142;2022-10-16T04:07:49;9.88;;;6.97;;
12214;SDS011;6170;42.206;24.142;2022-10-16T04:10:16;10.38;;;7.20;;
12214;SDS011;6170;42.206;24.142;2022-10-16T04:12:43;11.68;;;7.03;;
12214;SDS011;6170;42.206;24.142;2022-10-16T04:15:11;9.90;;;6.68;;
12214;SDS011;6170;42.206;24.142;2022-10-16T04:17:38;9.98;;;7.07;;
12214;SDS011;6170;42.206;24.142;2022-10-16T04:20:05;15.23;;;8.00;;
12214;SDS011;6170;42.206;24.142;2022-10-16T04:22:33;11.90;;;7.82;;
12214;SDS011;6170;42.206;24.142;2022-10-16T04:25:00;12.02;;;7.68;;
12214;SDS011;6170;42.206;24.142;2022-10-16T04:27:27;9.35;;;6.80;;
12214;SDS011;6170;42.206;24.142;2022-10-16T04:29:56;12.05;;;7.10;;
12214;SDS011;6170;42.206;24.142;2022-10-16T04:32:25;11.93;;;8.05;;
12214;SDS011;6170;42.206;24.142;2022-10-16T04:34:52;10.95;;;7.28;;
12214;SDS011;6170;42.206;24.142;2022-10-16T04:37:22;10.27;;;7.18;;
12214;SDS011;6170;42.206;24.142;2022-10-16T04:39:50;11.23;;;7.97;;
12214;SDS011;6170;42.206;24.142;2022-10-16T04:42:18;12.85;;;7.88;;
12214;SDS011;6170;42.206;24.142;2022-10-16T04:44:45;10.45;;;6.57;;
12214;SDS011;6170;42.206;24.142;2022-10-16T04:47:12;12.23;;;7.53;;
12214;SDS011;6170;42.206;24.142;2022-10-16T04:49:41;10.80;;;7.53;;
12214;SDS011;6170;42.206;24.142;2022-10-16T04:52:08;10.38;;;6.70;;
12214;SDS011;6170;42.206;24.142;2022-10-16T04:54:35;8.13;;;6.47;;
12214;SDS011;6170;42.206;24.142;2022-10-16T04:57:02;10.68;;;6.25;;
12214;SDS011;6170;42.206;24.142;2022-10-16T04:59:30;12.30;;;6.97;;
12214;SDS011;6170;42.206;24.142;2022-10-16T05:01:57;11.73;;;7.53;;
12214;SDS011;6170;42.206;24.142;2022-10-16T05:04:24;16.00;;;11.65;;
12214;SDS011;6170;42.206;24.142;2022-10-16T05:06:52;13.88;;;8.88;;
12214;SDS011;6170;42.206;24.142;2022-10-16T05:09:19;11.85;;;7.55;;
12214;SDS011;6170;42.206;24.142;2022-10-16T05:11:47;9.80;;;6.60;;
12214;SDS011;6170;42.206;24.142;2022-10-16T05:14:14;9.43;;;6.70;;
12214;SDS011;6170;42.206;24.142;2022-10-16T05:16:41;12.80;;;7.30;;
12214;SDS011;6170;42.206;24.142;2022-10-16T05:19:08;7.63;;;6.15;;
12214;SDS011;6170;42.206;24.142;2022-10-16T05:21:35;8.98;;;6.53;;
12214;SDS011;6170;42.206;24.142;2022-10-16T05:24:04;11.32;;;6.28;;
12214;SDS011;6170;42.206;24.142;2022-10-16T05:26:31;10.88;;;5.57;;
12214;SDS011;6170;42.206;24.142;2022-10-16T05:28:58;12.20;;;6.30;;
12214;SDS011;6170;42.206;24.142;2022-10-16T05:31:25;8.07;;;5.40;;
12214;SDS011;6170;42.206;24.142;2022-10-16T05:33:52;7.93;;;6.15;;
12214;SDS011;6170;42.206;24.142;2022-10-16T05:36:25;7.13;;;5.45;;
12214;SDS011;6170;42.206;24.142;2022-10-16T05:38:52;7.13;;;5.82;;
12214;SDS011;6170;42.206;24.142;2022-10-16T05:41:21;13.75;;;6.03;;
12214;SDS011;6170;42.206;24.142;2022-10-16T05:43:50;9.57;;;5.75;;
12214;SDS011;6170;42.206;24.142;2022-10-16T05:46:18;8.45;;;5.15;;
12214;SDS011;6170;42.206;24.142;2022-10-16T05:48:45;10.60;;;6.10;;
12214;SDS011;6170;42.206;24.142;2022-10-16T05:51:13;7.03;;;5.80;;
12214;SDS011;6170;42.206;24.142;2022-10-16T05:53:41;8.77;;;6.40;;
12214;SDS011;6170;42.206;24.142;2022-10-16T05:56:09;6.80;;;5.70;;
12214;SDS011;6170;42.206;24.142;2022-10-16T05:58:39;7.32;;;6.05;;
12214;SDS011;6170;42.206;24.142;2022-10-16T06:01:07;9.43;;;6.43;;
12214;SDS011;6170;42.206;24.142;2022-10-16T06:03:37;8.35;;;6.07;;
12214;SDS011;6170;42.206;24.142;2022-10-16T06:06:08;11.00;;;9.35;;
12214;SDS011;6170;42.206;24.142;2022-10-16T06:08:36;15.48;;;10.45;;
12214;SDS011;6170;42.206;24.142;2022-10-16T06:11:04;12.43;;;9.63;;
12214;SDS011;6170;42.206;24.142;2022-10-16T06:13:31;8.45;;;6.72;;
12214;SDS011;6170;42.206;24.142;2022-10-16T06:16:00;7.90;;;5.95;;
12214;SDS011;6170;42.206;24.142;2022-10-16T06:18:28;10.77;;;5.72;;
12214;SDS011;6170;42.206;24.142;2022-10-16T06:20:55;10.32;;;6.25;;
12214;SDS011;6170;42.206;24.142;2022-10-16T06:23:23;8.27;;;6.25;;
12214;SDS011;6170;42.206;24.142;2022-10-16T06:25:50;8.68;;;5.88;;
12214;SDS011;6170;42.206;24.142;2022-10-16T06:28:17;8.15;;;5.70;;
12214;SDS011;6170;42.206;24.142;2022-10-16T06:30:44;12.13;;;5.93;;
12214;SDS011;6170;42.206;24.142;2022-10-16T06:33:12;10.65;;;5.47;;
12214;SDS011;6170;42.206;24.142;2022-10-16T06:35:39;11.63;;;5.47;;
12214;SDS011;6170;42.206;24.142;2022-10-16T06:38:06;6.80;;;5.28;;
12214;SDS011;6170;42.206;24.142;2022-10-16T06:40:33;8.35;;;6.03;;
12214;SDS011;6170;42.206;24.142;2022-10-16T06:43:00;8.30;;;5.63;;
12214;SDS011;6170;42.206;24.142;2022-10-16T06:45:27;7.88;;;5.53;;
12214;SDS011;6170;42.206;24.142;2022-10-16T06:47:54;15.25;;;6.63;;
12214;SDS011;6170;42.206;24.142;2022-10-16T06:50:22;9.13;;;6.20;;
12214;SDS011;6170;42.206;24.142;2022-10-16T06:52:49;7.85;;;6.28;;
12214;SDS011;6170;42.206;24.142;2022-10-16T06:55:16;8.38;;;5.60;;
12214;SDS011;6170;42.206;24.142;2022-10-16T06:57:43;7.78;;;6.10;;
12214;SDS011;6170;42.206;24.142;2022-10-16T07:00:10;10.68;;;6.32;;
12214;SDS011;6170;42.206;24.142;2022-10-16T07:02:37;10.98;;;6.90;;
12214;SDS011;6170;42.206;24.142;2022-10-16T07:05:04;6.80;;;5.55;;
12214;SDS011;6170;42.206;24.142;2022-10-16T07:07:33;9.40;;;6.90;;
12214;SDS011;6170;42.206;24.142;2022-10-16T07:10:00;10.48;;;6.60;;
12214;SDS011;6170;42.206;24.142;2022-10-16T07:12:27;8.93;;;6.53;;
12214;SDS011;6170;42.206;24.142;2022-10-16T07:14:54;9.40;;;6.75;;
12214;SDS011;6170;42.206;24.142;2022-10-16T07:17:21;8.80;;;6.35;;
12214;SDS011;6170;42.206;24.142;2022-10-16T07:19:48;8.02;;;6.35;;
12214;SDS011;6170;42.206;24.142;2022-10-16T07:22:17;6.85;;;5.72;;
12214;SDS011;6170;42.206;24.142;2022-10-16T07:24:46;10.77;;;6.38;;
12214;SDS011;6170;42.206;24.142;2022-10-16T07:27:13;8.85;;;5.95;;
12214;SDS011;6170;42.206;24.142;2022-10-16T07:29:41;10.00;;;6.30;;
12214;SDS011;6170;42.206;24.142;2022-10-16T07:32:08;8.70;;;6.57;;
12214;SDS011;6170;42.206;24.142;2022-10-16T07:34:35;7.57;;;5.88;;
12214;SDS011;6170;42.206;24.142;2022-10-16T07:37:02;9.45;;;5.78;;
12214;SDS011;6170;42.206;24.142;2022-10-16T07:39:29;6.97;;;5.68;;
12214;SDS011;6170;42.206;24.142;2022-10-16T07:41:57;7.97;;;5.57;;
12214;SDS011;6170;42.206;24.142;2022-10-16T07:44:24;8.48;;;5.80;;
12214;SDS011;6170;42.206;24.142;2022-10-16T07:46:51;11.73;;;6.00;;
12214;SDS011;6170;42.206;24.142;2022-10-16T07:49:17;8.50;;;5.95;;
12214;SDS011;6170;42.206;24.142;2022-10-16T07:51:44;10.93;;;5.90;;
12214;SDS011;6170;42.206;24.142;2022-10-16T07:54:11;19.70;;;10.15;;
12214;SDS011;6170;42.206;24.142;2022-10-16T07:56:38;12.55;;;6.82;;
12214;SDS011;6170;42.206;24.142;2022-10-16T07:59:06;9.88;;;6.45;;
12214;SDS011;6170;42.206;24.142;2022-10-16T08:01:33;7.13;;;5.50;;
12214;SDS011;6170;42.206;24.142;2022-10-16T08:04:00;10.95;;;5.80;;
12214;SDS011;6170;42.206;24.142;2022-10-16T08:06:27;13.82;;;5.78;;
12214;SDS011;6170;42.206;24.142;2022-10-16T08:08:54;7.40;;;5.43;;
12214;SDS011;6170;42.206;24.142;2022-10-16T08:11:21;14.95;;;5.88;;
12214;SDS011;6170;42.206;24.142;2022-10-16T08:13:48;7.20;;;5.60;;
12214;SDS011;6170;42.206;24.142;2022-10-16T08:16:17;10.90;;;5.78;;
12214;SDS011;6170;42.206;24.142;2022-10-16T08:18:43;9.80;;;5.50;;
12214;SDS011;6170;42.206;24.142;2022-10-16T08:21:12;5.85;;;5.03;;
12214;SDS011;6170;42.206;24.142;2022-10-16T08:23:39;9.82;;;5.80;;
12214;SDS011;6170;42.206;24.142;2022-10-16T08:26:07;7.35;;;5.22;;
12214;SDS011;6170;42.206;24.142;2022-10-16T08:28:35;9.25;;;5.13;;
12214;SDS011;6170;42.206;24.142;2022-10-16T08:31:06;10.98;;;5.63;;
12214;SDS011;6170;42.206;24.142;2022-10-16T08:33:36;7.78;;;5.75;;
12214;SDS011;6170;42.206;24.142;2022-10-16T08:36:03;11.40;;;6.00;;
12214;SDS011;6170;42.206;24.142;2022-10-16T08:38:32;14.73;;;6.90;;
12214;SDS011;6170;42.206;24.142;2022-10-16T08:41:02;11.18;;;5.43;;
12214;SDS011;6170;42.206;24.142;2022-10-16T08:46:47;17.95;;;5.88;;
12214;SDS011;6170;42.206;24.142;2022-10-16T08:49:23;8.38;;;5.72;;
12214;SDS011;6170;42.206;24.142;2022-10-16T08:51:51;13.98;;;5.80;;
12214;SDS011;6170;42.206;24.142;2022-10-16T08:54:21;7.05;;;5.35;;
12214;SDS011;6170;42.206;24.142;2022-10-16T08:56:54;8.88;;;5.85;;
12214;SDS011;6170;42.206;24.142;2022-10-16T08:59:22;9.55;;;5.88;;
12214;SDS011;6170;42.206;24.142;2022-10-16T09:01:49;7.90;;;5.90;;
12214;SDS011;6170;42.206;24.142;2022-10-16T09:07:22;7.53;;;5.60;;
12214;SDS011;6170;42.206;24.142;2022-10-16T09:10:00;10.00;;;6.22;;
12214;SDS011;6170;42.206;24.142;2022-10-16T09:12:36;10.15;;;6.18;;
12214;SDS011;6170;42.206;24.142;2022-10-16T09:15:12;8.20;;;5.70;;
12214;SDS011;6170;42.206;24.142;2022-10-16T09:17:49;13.50;;;5.90;;
12214;SDS011;6170;42.206;24.142;2022-10-16T09:20:33;7.43;;;5.57;;
12214;SDS011;6170;42.206;24.142;2022-10-16T09:23:12;14.70;;;5.32;;
12214;SDS011;6170;42.206;24.142;2022-10-16T09:25:44;9.13;;;5.53;;
12214;SDS011;6170;42.206;24.142;2022-10-16T09:28:14;14.50;;;5.65;;
12214;SDS011;6170;42.206;24.142;2022-10-16T09:30:41;9.50;;;5.40;;
12214;SDS011;6170;42.206;24.142;2022-10-16T09:33:09;8.10;;;5.22;;
12214;SDS011;6170;42.206;24.142;2022-10-16T09:35:39;8.32;;;5.45;;
12214;SDS011;6170;42.206;24.142;2022-10-16T09:38:08;8.13;;;5.57;;
12214;SDS011;6170;42.206;24.142;2022-10-16T09:40:46;6.95;;;4.63;;
12214;SDS011;6170;42.206;24.142;2022-10-16T09:43:17;6.95;;;5.03;;
12214;SDS011;6170;42.206;24.142;2022-10-16T09:45:55;13.13;;;5.32;;
12214;SDS011;6170;42.206;24.142;2022-10-16T09:48:25;13.40;;;6.30;;
12214;SDS011;6170;42.206;24.142;2022-10-16T09:50:59;8.18;;;5.68;;
12214;SDS011;6170;42.206;24.142;2022-10-16T09:53:37;6.85;;;5.20;;
12214;SDS011;6170;42.206;24.142;2022-10-16T09:56:06;8.30;;;5.53;;
12214;SDS011;6170;42.206;24.142;2022-10-16T09:58:33;11.65;;;5.22;;
12214;SDS011;6170;42.206;24.142;2022-10-16T10:00:59;10.32;;;5.38;;
12214;SDS011;6170;42.206;24.142;2022-10-16T10:03:36;6.63;;;5.03;;
12214;SDS011;6170;42.206;24.142;2022-10-16T10:06:14;7.18;;;5.53;;
12214;SDS011;6170;42.206;24.142;2022-10-16T10:08:58;5.38;;;4.28;;
12214;SDS011;6170;42.206;24.142;2022-10-16T10:11:40;5.75;;;4.43;;
12214;SDS011;6170;42.206;24.142;2022-10-16T10:14:17;7.75;;;4.82;;
12214;SDS011;6170;42.206;24.142;2022-10-16T10:16:47;7.45;;;4.47;;
12214;SDS011;6170;42.206;24.142;2022-10-16T10:19:15;10.07;;;5.20;;
12214;SDS011;6170;42.206;24.142;2022-10-16T10:21:45;6.68;;;4.85;;
12214;SDS011;6170;42.206;24.142;2022-10-16T10:24:13;9.07;;;4.93;;
12214;SDS011;6170;42.206;24.142;2022-10-16T10:26:44;10.68;;;5.05;;
12214;SDS011;6170;42.206;24.142;2022-10-16T10:29:25;5.82;;;4.60;;
12214;SDS011;6170;42.206;24.142;2022-10-16T10:32:04;7.45;;;5.20;;
12214;SDS011;6170;42.206;24.142;2022-10-16T10:34:42;6.47;;;4.68;;
12214;SDS011;6170;42.206;24.142;2022-10-16T10:37:26;10.25;;;6.25;;
12214;SDS011;6170;42.206;24.142;2022-10-16T10:40:11;8.48;;;5.07;;
12214;SDS011;6170;42.206;24.142;2022-10-16T10:42:50;8.25;;;4.90;;
12214;SDS011;6170;42.206;24.142;2022-10-16T10:45:26;9.68;;;5.28;;
12214;SDS011;6170;42.206;24.142;2022-10-16T10:47:57;9.73;;;5.20;;
12214;SDS011;6170;42.206;24.142;2022-10-16T10:50:34;6.50;;;4.60;;
12214;SDS011;6170;42.206;24.142;2022-10-16T10:53:11;12.55;;;6.38;;
12214;SDS011;6170;42.206;24.142;2022-10-16T10:55:48;9.13;;;5.30;;
12214;SDS011;6170;42.206;24.142;2022-10-16T10:58:35;8.68;;;5.28;;
12214;SDS011;6170;42.206;24.142;2022-10-16T11:01:21;12.52;;;6.95;;
12214;SDS011;6170;42.206;24.142;2022-10-16T11:04:00;7.05;;;6.07;;
12214;SDS011;6170;42.206;24.142;2022-10-16T11:06:42;6.47;;;5.28;;
12214;SDS011;6170;42.206;24.142;2022-10-16T11:09:15;8.43;;;4.50;;
12214;SDS011;6170;42.206;24.142;2022-10-16T11:11:46;9.45;;;5.18;;
12214;SDS011;6170;42.206;24.142;2022-10-16T11:14:19;7.50;;;4.70;;
12214;SDS011;6170;42.206;24.142;2022-10-16T11:16:49;8.77;;;4.80;;
12214;SDS011;6170;42.206;24.142;2022-10-16T11:19:23;9.63;;;4.82;;
12214;SDS011;6170;42.206;24.142;2022-10-16T11:22:00;7.13;;;4.90;;
12214;SDS011;6170;42.206;24.142;2022-10-16T11:24:35;8.18;;;4.60;;
12214;SDS011;6170;42.206;24.142;2022-10-16T11:27:12;8.05;;;4.40;;
12214;SDS011;6170;42.206;24.142;2022-10-16T11:29:44;6.22;;;4.35;;
12214;SDS011;6170;42.206;24.142;2022-10-16T11:34:49;6.45;;;4.97;;
12214;SDS011;6170;42.206;24.142;2022-10-16T11:37:20;6.07;;;4.60;;
12214;SDS011;6170;42.206;24.142;2022-10-16T11:39:56;8.93;;;4.45;;
12214;SDS011;6170;42.206;24.142;2022-10-16T11:42:32;9.18;;;4.63;;
12214;SDS011;6170;42.206;24.142;2022-10-16T11:45:07;6.30;;;4.18;;
12214;SDS011;6170;42.206;24.142;2022-10-16T11:47:51;8.70;;;4.82;;
12214;SDS011;6170;42.206;24.142;2022-10-16T11:50:28;6.60;;;4.13;;
12214;SDS011;6170;42.206;24.142;2022-10-16T11:53:01;6.80;;;4.57;;
12214;SDS011;6170;42.206;24.142;2022-10-16T11:55:38;5.93;;;4.05;;
12214;SDS011;6170;42.206;24.142;2022-10-16T11:58:07;4.88;;;3.55;;
12214;SDS011;6170;42.206;24.142;2022-10-16T12:00:39;6.20;;;4.13;;
12214;SDS011;6170;42.206;24.142;2022-10-16T12:03:15;8.50;;;4.22;;
12214;SDS011;6170;42.206;24.142;2022-10-16T12:05:54;6.78;;;4.43;;
12214;SDS011;6170;42.206;24.142;2022-10-16T12:08:32;5.47;;;3.88;;
12214;SDS011;6170;42.206;24.142;2022-10-16T12:11:07;5.60;;;4.20;;
12214;SDS011;6170;42.206;24.142;2022-10-16T12:13:37;6.85;;;3.80;;
12214;SDS011;6170;42.206;24.142;2022-10-16T12:18:49;5.03;;;4.07;;
12214;SDS011;6170;42.206;24.142;2022-10-16T12:21:29;6.28;;;3.97;;
12214;SDS011;6170;42.206;24.142;2022-10-16T12:23:58;7.28;;;4.13;;
12214;SDS011;6170;42.206;24.142;2022-10-16T12:26:31;6.70;;;4.07;;
12214;SDS011;6170;42.206;24.142;2022-10-16T12:29:11;6.65;;;3.83;;
12214;SDS011;6170;42.206;24.142;2022-10-16T12:31:43;7.50;;;4.10;;
12214;SDS011;6170;42.206;24.142;2022-10-16T12:34:20;6.57;;;3.83;;
12214;SDS011;6170;42.206;24.142;2022-10-16T12:36:52;8.57;;;3.80;;
12214;SDS011;6170;42.206;24.142;2022-10-16T12:39:21;4.38;;;3.45;;
12214;SDS011;6170;42.206;24.142;2022-10-16T12:42:01;5.43;;;3.80;;
12214;SDS011;6170;42.206;24.142;2022-10-16T12:44:33;7.32;;;4.55;;
12214;SDS011;6170;42.206;24.142;2022-10-16T12:47:01;5.75;;;3.67;;
12214;SDS011;6170;42.206;24.142;2022-10-16T12:49:29;6.13;;;3.53;;
12214;SDS011;6170;42.206;24.142;2022-10-16T12:51:58;10.25;;;3.40;;
12214;SDS011;6170;42.206;24.142;2022-10-16T12:54:26;8.50;;;4.20;;
12214;SDS011;6170;42.206;24.142;2022-10-16T12:57:08;8.00;;;4.32;;
12214;SDS011;6170;42.206;24.142;2022-10-16T12:59:50;5.72;;;4.22;;
12214;SDS011;6170;42.206;24.142;2022-10-16T13:02:32;11.60;;;3.92;;
12214;SDS011;6170;42.206;24.142;2022-10-16T13:05:26;9.20;;;4.18;;
12214;SDS011;6170;42.206;24.142;2022-10-16T13:08:14;6.30;;;4.10;;
12214;SDS011;6170;42.206;24.142;2022-10-16T13:10:55;5.05;;;3.75;;
12214;SDS011;6170;42.206;24.142;2022-10-16T13:13:35;6.40;;;3.90;;
12214;SDS011;6170;42.206;24.142;2022-10-16T13:16:21;7.50;;;4.15;;
12214;SDS011;6170;42.206;24.142;2022-10-16T13:18:59;5.25;;;4.60;;
12214;SDS011;6170;42.206;24.142;2022-10-16T13:21:38;8.32;;;4.47;;
12214;SDS011;6170;42.206;24.142;2022-10-16T13:24:16;6.45;;;4.20;;
12214;SDS011;6170;42.206;24.142;2022-10-16T13:26:52;7.60;;;4.38;;
12214;SDS011;6170;42.206;24.142;2022-10-16T13:29:30;7.28;;;4.47;;
12214;SDS011;6170;42.206;24.142;2022-10-16T13:31:59;7.22;;;4.47;;
12214;SDS011;6170;42.206;24.142;2022-10-16T13:34:33;6.13;;;4.35;;
12214;SDS011;6170;42.206;24.142;2022-10-16T13:37:15;7.90;;;3.97;;
12214;SDS011;6170;42.206;24.142;2022-10-16T13:39:43;6.25;;;4.10;;
12214;SDS011;6170;42.206;24.142;2022-10-16T13:42:13;11.30;;;4.32;;
12214;SDS011;6170;42.206;24.142;2022-10-16T13:44:44;9.00;;;5.28;;
12214;SDS011;6170;42.206;24.142;2022-10-16T13:47:15;8.32;;;4.57;;
12214;SDS011;6170;42.206;24.142;2022-10-16T13:49:43;8.20;;;6.10;;
12214;SDS011;6170;42.206;24.142;2022-10-16T13:52:17;5.68;;;3.95;;
12214;SDS011;6170;42.206;24.142;2022-10-16T13:54:46;5.43;;;3.70;;
12214;SDS011;6170;42.206;24.142;2022-10-16T13:57:13;3.97;;;3.45;;
12214;SDS011;6170;42.206;24.142;2022-10-16T13:59:40;4.38;;;3.58;;
12214;SDS011;6170;42.206;24.142;2022-10-16T14:02:17;5.75;;;3.60;;
12214;SDS011;6170;42.206;24.142;2022-10-16T14:04:48;4.38;;;3.35;;
12214;SDS011;6170;42.206;24.142;2022-10-16T14:07:18;5.07;;;3.30;;
12214;SDS011;6170;42.206;24.142;2022-10-16T14:09:50;4.25;;;3.53;;
12214;SDS011;6170;42.206;24.142;2022-10-16T14:12:18;5.22;;;3.30;;
12214;SDS011;6170;42.206;24.142;2022-10-16T14:14:46;8.35;;;4.18;;
12214;SDS011;6170;42.206;24.142;2022-10-16T14:17:18;11.93;;;3.92;;
12214;SDS011;6170;42.206;24.142;2022-10-16T14:19:46;9.80;;;3.75;;
12214;SDS011;6170;42.206;24.142;2022-10-16T14:22:21;5.38;;;3.58;;
12214;SDS011;6170;42.206;24.142;2022-10-16T14:24:54;7.45;;;3.75;;
12214;SDS011;6170;42.206;24.142;2022-10-16T14:27:24;4.60;;;3.90;;
12214;SDS011;6170;42.206;24.142;2022-10-16T14:30:08;5.32;;;3.60;;
12214;SDS011;6170;42.206;24.142;2022-10-16T14:32:42;6.05;;;3.78;;
12214;SDS011;6170;42.206;24.142;2022-10-16T14:35:24;5.22;;;3.80;;
12214;SDS011;6170;42.206;24.142;2022-10-16T14:37:53;7.32;;;3.80;;
12214;SDS011;6170;42.206;24.142;2022-10-16T14:40:23;8.52;;;4.00;;
12214;SDS011;6170;42.206;24.142;2022-10-16T14:42:51;5.63;;;4.22;;
12214;SDS011;6170;42.206;24.142;2022-10-16T14:45:19;12.52;;;6.53;;
12214;SDS011;6170;42.206;24.142;2022-10-16T14:47:50;10.35;;;4.57;;
12214;SDS011;6170;42.206;24.142;2022-10-16T14:50:20;11.10;;;6.77;;
12214;SDS011;6170;42.206;24.142;2022-10-16T14:52:48;16.05;;;8.90;;
12214;SDS011;6170;42.206;24.142;2022-10-16T14:55:15;15.77;;;8.80;;
12214;SDS011;6170;42.206;24.142;2022-10-16T14:57:42;12.75;;;7.45;;
12214;SDS011;6170;42.206;24.142;2022-10-16T15:00:17;10.82;;;5.90;;
12214;SDS011;6170;42.206;24.142;2022-10-16T15:02:47;7.20;;;4.15;;
12214;SDS011;6170;42.206;24.142;2022-10-16T15:05:17;6.53;;;3.92;;
12214;SDS011;6170;42.206;24.142;2022-10-16T15:07:47;6.90;;;3.63;;
12214;SDS011;6170;42.206;24.142;2022-10-16T15:10:15;5.65;;;4.07;;
12214;SDS011;6170;42.206;24.142;2022-10-16T15:12:44;13.20;;;4.00;;
12214;SDS011;6170;42.206;24.142;2022-10-16T15:18:06;8.02;;;4.03;;